Time;durP1;ratioP1;P1;durP2;ratioP2;P2;SDS_P1;SDS_P2;PMS_P1;PMS_P2;Temp;Humidity;BMP_temperature;BMP_pressure;BME280_temperature;BME280_humidity;BME280_pressure;Samples;Min_cycle;Max_cycle;Signal;HPM_P1;HPM_P2
2021/10/31 00:00:04;;;;;;;152.00;70.62;;;;;;;2.11;80.55;102236.84;1771635;80;21201;-54
2021/10/31 00:03:08;;;;;;;149.47;66.50;;;;;;;2.11;80.61;102240.05;1771991;80;21224;-53
2021/10/31 00:06:15;;;;;;;142.57;67.72;;;;;;;2.09;80.59;102241.94;1764253;81;21297;-53
2021/10/31 00:09:21;;;;;;;138.97;63.42;;;;;;;2.07;80.59;102238.43;1771297;81;21189;-54
2021/10/31 00:12:29;;;;;;;134.15;64.05;;;;;;;2.05;80.54;102241.21;1763930;81;21201;-53
2021/10/31 00:15:36;;;;;;;128.70;62.85;;;;;;;2.04;80.48;102241.29;1770890;81;21205;-53
2021/10/31 00:18:44;;;;;;;128.02;60.23;;;;;;;2.02;80.54;102241.37;1769423;80;21204;-53
2021/10/31 00:21:49;;;;;;;121.57;59.85;;;;;;;2.02;80.55;102239.13;1765839;80;21391;-54
2021/10/31 00:24:54;;;;;;;124.45;62.17;;;;;;;2.02;80.54;102231.91;1771161;81;21208;-53
2021/10/31 00:28:00;;;;;;;129.03;61.90;;;;;;;2.01;80.52;102235.58;1771583;80;21315;-55
2021/10/31 00:31:06;;;;;;;123.22;62.88;;;;;;;2.02;80.47;102239.13;1771371;80;21269;-53
2021/10/31 00:34:12;;;;;;;128.68;60.60;;;;;;;2.01;80.44;102230.64;1771775;80;21383;-53
2021/10/31 00:37:18;;;;;;;133.97;62.83;;;;;;;2.00;80.42;102234.30;1771843;80;21339;-53
2021/10/31 00:40:26;;;;;;;119.42;58.33;;;;;;;1.98;80.41;102234.38;1770594;81;21221;-54
2021/10/31 00:43:31;;;;;;;123.78;62.60;;;;;;;1.97;80.62;102231.73;1771452;80;21181;-54
2021/10/31 00:46:36;;;;;;;127.87;62.35;;;;;;;2.00;80.83;102237.01;1770824;80;21251;-54
2021/10/31 00:49:41;;;;;;;116.73;62.45;;;;;;;2.02;80.94;102229.22;1771335;80;21229;-54
2021/10/31 00:52:46;;;;;;;119.37;60.65;;;;;;;2.04;80.94;102218.33;1766518;79;21795;-54
2021/10/31 00:55:52;;;;;;;118.08;59.10;;;;;;;2.03;80.96;102224.70;1768678;81;21378;-54
2021/10/31 00:58:58;;;;;;;114.60;57.33;;;;;;;2.03;80.96;102224.20;1768372;81;21373;-54
2021/10/31 01:02:08;;;;;;;110.50;55.40;;;;;;;2.02;80.94;102226.52;1768422;81;21180;-53
2021/10/31 01:05:15;;;;;;;109.22;57.67;;;;;;;2.02;80.94;102213.47;1768205;81;21362;-54
2021/10/31 01:08:42;;;;;;;119.60;56.50;;;;;;;2.01;80.92;102211.73;1767996;81;21864;-53
2021/10/31 01:12:17;;;;;;;107.58;57.08;;;;;;;1.98;80.84;102207.84;1767758;81;21200;-54
2021/10/31 01:15:48;;;;;;;112.25;57.35;;;;;;;1.96;80.72;102216.48;1767988;81;21203;-54
2021/10/31 01:19:28;;;;;;;119.20;58.02;;;;;;;1.91;80.72;102214.02;1767760;81;21192;-53
2021/10/31 01:22:59;;;;;;;113.10;59.67;;;;;;;1.88;80.80;102210.59;1766538;81;21573;-53
2021/10/31 01:26:35;;;;;;;119.65;59.33;;;;;;;1.85;80.71;102203.53;1736995;82;21242;-52
2021/10/31 01:30:02;;;;;;;121.20;60.65;;;;;;;1.79;80.48;102204.31;1759676;81;21262;-53
2021/10/31 01:33:45;;;;;;;110.60;54.85;;;;;;;1.72;80.36;102196.09;1767797;81;21179;-55
2021/10/31 01:37:23;;;;;;;120.92;62.17;;;;;;;1.66;80.47;102192.36;1767782;81;21196;-55
2021/10/31 01:40:50;;;;;;;126.62;64.37;;;;;;;1.66;80.93;102199.98;1767554;81;21887;-54
2021/10/31 01:44:36;;;;;;;134.90;64.77;;;;;;;1.62;81.17;102194.33;1767392;81;21377;-54
2021/10/31 01:47:55;;;;;;;119.97;59.33;;;;;;;1.61;81.37;102185.84;1754917;81;21240;-55
2021/10/31 01:51:04;;;;;;;121.75;60.28;;;;;;;1.60;81.34;102185.45;1757356;81;21161;-53
2021/10/31 01:54:16;;;;;;;120.85;60.17;;;;;;;1.60;81.38;102185.45;1767494;81;21170;-54
2021/10/31 01:57:26;;;;;;;131.63;66.60;;;;;;;1.62;81.45;102184.88;1767740;81;21238;-54
2021/10/31 02:00:33;;;;;;;129.60;66.02;;;;;;;1.64;81.47;102183.45;1761876;81;21228;-54
2021/10/31 02:03:40;;;;;;;130.47;61.75;;;;;;;1.64;81.41;102186.15;1733527;82;21280;-55
2021/10/31 02:06:51;;;;;;;128.55;63.23;;;;;;;1.58;80.93;102190.50;1740252;82;21363;-55
2021/10/31 02:09:56;;;;;;;125.38;60.75;;;;;;;1.50;80.59;102186.37;1740293;82;21339;-53
2021/10/31 02:13:02;;;;;;;111.15;58.38;;;;;;;1.44;80.59;102187.14;1740247;82;21900;-53
2021/10/31 02:16:08;;;;;;;120.15;57.60;;;;;;;1.42;80.63;102183.63;1740470;82;21466;-54
2021/10/31 02:19:20;;;;;;;119.28;55.55;;;;;;;1.38;80.63;102190.99;1740054;82;21344;-54
2021/10/31 02:22:37;;;;;;;133.30;68.00;;;;;;;1.37;80.80;102185.20;1740306;82;21339;-52
2021/10/31 02:25:43;;;;;;;149.23;72.85;;;;;;;1.38;81.04;102184.25;1739959;82;21397;-53
2021/10/31 02:28:49;;;;;;;151.05;76.82;;;;;;;1.37;81.22;102185.20;1733730;82;21232;-54
2021/10/31 02:31:54;;;;;;;126.82;64.17;;;;;;;1.38;81.43;102188.30;1733595;82;21217;-53
2021/10/31 02:35:02;;;;;;;124.50;64.67;;;;;;;1.41;81.46;102182.75;1740529;82;21208;-53
2021/10/31 02:38:08;;;;;;;116.28;61.95;;;;;;;1.42;81.50;102193.08;1740843;82;21212;-54
2021/10/31 02:41:14;;;;;;;119.20;58.17;;;;;;;1.43;81.45;102188.95;1741451;82;21708;-53
2021/10/31 02:44:20;;;;;;;117.67;58.60;;;;;;;1.39;81.07;102181.97;1740709;82;21209;-53
2021/10/31 02:47:50;;;;;;;117.13;58.13;;;;;;;1.33;80.82;102183.59;1740964;82;21196;-54
2021/10/31 02:50:55;;;;;;;115.52;57.67;;;;;;;1.30;80.89;102172.09;1740715;82;21201;-57
2021/10/31 02:54:05;;;;;;;124.05;63.50;;;;;;;1.28;80.84;102180.27;1741550;81;21355;-54
2021/10/31 02:57:15;;;;;;;121.02;62.43;;;;;;;1.28;80.93;102172.17;1740925;82;21339;-54
2021/10/31 03:00:22;;;;;;;123.82;61.37;;;;;;;1.28;81.13;102171.28;1741162;82;21217;-54
2021/10/31 03:03:29;;;;;;;115.08;56.70;;;;;;;1.29;81.21;102174.38;1741194;82;21217;-53
2021/10/31 03:06:36;;;;;;;113.68;58.35;;;;;;;1.28;81.07;102174.87;1740920;82;21229;-54
2021/10/31 03:09:41;;;;;;;121.45;60.90;;;;;;;1.26;80.91;102180.80;1740953;82;21192;-53
2021/10/31 03:12:47;;;;;;;114.50;58.58;;;;;;;1.23;80.87;102176.91;1740899;81;21343;-54
2021/10/31 03:15:52;;;;;;;111.22;56.90;;;;;;;1.21;80.84;102176.09;1740855;82;21379;-54
2021/10/31 03:18:58;;;;;;;107.70;56.15;;;;;;;1.18;80.63;102171.31;1740772;82;21181;-54
2021/10/31 03:22:04;;;;;;;121.02;59.27;;;;;;;1.14;80.58;102172.42;1740971;82;21348;-53
2021/10/31 03:25:11;;;;;;;118.90;60.50;;;;;;;1.13;80.72;102178.27;1740839;82;21403;-54
2021/10/31 03:28:17;;;;;;;127.85;60.12;;;;;;;1.13;80.76;102179.63;1740669;82;21224;-54
2021/10/31 03:31:23;;;;;;;106.67;54.42;;;;;;;1.11;80.65;102182.86;1740618;82;21240;-54
2021/10/31 03:34:30;;;;;;;105.67;55.70;;;;;;;1.11;80.63;102176.61;1740903;82;21212;-54
2021/10/31 03:37:36;;;;;;;100.75;52.98;;;;;;;1.08;80.50;102169.98;1740941;82;21204;-55
2021/10/31 03:40:41;;;;;;;104.92;55.45;;;;;;;1.06;80.52;102176.80;1733753;82;21259;-54
2021/10/31 03:43:50;;;;;;;97.12;54.05;;;;;;;1.06;80.58;102178.15;1741385;81;21895;-54
2021/10/31 03:46:57;;;;;;;102.60;53.10;;;;;;;1.06;80.75;102170.06;1733848;82;21753;-54
2021/10/31 03:50:05;;;;;;;109.70;55.55;;;;;;;1.05;80.82;102168.32;1740974;82;21248;-54
2021/10/31 03:53:11;;;;;;;107.27;56.50;;;;;;;1.07;81.00;102172.30;1741268;82;21209;-54
2021/10/31 03:56:17;;;;;;;101.22;53.70;;;;;;;1.10;81.25;102170.33;1741516;80;21193;-54
2021/10/31 03:59:22;;;;;;;95.60;52.25;;;;;;;1.10;81.28;102173.49;1741476;82;21733;-53
2021/10/31 04:02:27;;;;;;;104.97;52.20;;;;;;;1.09;81.07;102174.45;1740738;82;21760;-53
2021/10/31 04:05:35;;;;;;;107.05;53.68;;;;;;;1.02;80.66;102164.42;1740510;82;21272;-53
2021/10/31 04:08:40;;;;;;;107.10;52.83;;;;;;;0.96;80.42;102168.77;1740670;82;21943;-53
2021/10/31 04:11:47;;;;;;;110.52;55.83;;;;;;;0.90;80.10;102160.08;1740605;82;21264;-54
2021/10/31 04:14:55;;;;;;;106.55;54.00;;;;;;;0.82;79.86;102156.86;1740177;81;21288;-54
2021/10/31 04:18:00;;;;;;;111.08;55.78;;;;;;;0.75;79.78;102151.34;1740391;82;21761;-53
2021/10/31 04:21:06;;;;;;;110.22;57.55;;;;;;;0.73;80.04;102149.21;1740391;82;21193;-53
2021/10/31 04:24:11;;;;;;;119.47;60.20;;;;;;;0.77;80.38;102140.91;1740300;82;21326;-54
2021/10/31 04:27:16;;;;;;;113.32;59.33;;;;;;;0.82;80.63;102146.97;1733851;82;21224;-54
2021/10/31 04:30:23;;;;;;;127.42;61.00;;;;;;;0.84;80.71;102142.85;1740460;82;21256;-54
2021/10/31 04:33:30;;;;;;;121.70;60.80;;;;;;;0.86;80.78;102144.52;1740336;82;21221;-53
2021/10/31 04:36:35;;;;;;;131.70;63.65;;;;;;;0.89;80.90;102138.09;1740225;82;21267;-54
2021/10/31 04:39:41;;;;;;;120.67;62.90;;;;;;;0.92;81.08;102136.13;1740162;82;21228;-53
2021/10/31 04:42:50;;;;;;;154.25;73.15;;;;;;;0.96;81.24;102139.11;1740434;82;21216;-54
2021/10/31 04:45:56;;;;;;;161.65;72.55;;;;;;;1.01;81.32;102138.42;1740937;81;21205;-55
2021/10/31 04:49:03;;;;;;;154.68;69.92;;;;;;;1.01;81.03;102145.16;1741153;82;21188;-54
2021/10/31 04:52:09;;;;;;;173.07;79.85;;;;;;;1.01;80.73;102142.92;1740884;82;21197;-54
2021/10/31 04:55:15;;;;;;;190.07;84.77;;;;;;;0.97;80.61;102144.89;1740212;81;21196;-56
2021/10/31 04:58:24;;;;;;;175.50;79.50;;;;;;;0.94;80.98;102144.15;1742685;82;21347;-54
2021/10/31 05:01:30;;;;;;;171.70;77.82;;;;;;;0.97;81.37;102147.58;1742722;82;21402;-54
2021/10/31 05:04:36;;;;;;;162.20;73.25;;;;;;;0.98;81.58;102146.62;1742632;82;21809;-53
2021/10/31 05:07:42;;;;;;;145.35;68.75;;;;;;;1.02;81.64;102150.05;1734266;82;21220;-54
2021/10/31 05:10:48;;;;;;;128.27;62.60;;;;;;;1.08;81.67;102155.16;1742646;82;21363;-54
2021/10/31 05:13:53;;;;;;;121.95;62.70;;;;;;;1.13;81.75;102137.83;1742524;82;21383;-55
2021/10/31 05:17:00;;;;;;;118.57;58.68;;;;;;;1.20;81.89;102148.73;1742417;81;21208;-54
2021/10/31 05:20:06;;;;;;;109.27;57.67;;;;;;;1.26;82.02;102143.03;1742658;82;21399;-54
2021/10/31 05:23:10;;;;;;;115.67;60.75;;;;;;;1.35;82.26;102143.93;1734504;82;21209;-55
2021/10/31 05:26:16;;;;;;;110.00;58.30;;;;;;;1.44;82.32;102136.73;1742661;82;21343;-54
2021/10/31 05:29:23;;;;;;;118.10;60.78;;;;;;;1.50;82.29;102144.55;1742637;82;21824;-54
2021/10/31 05:32:35;;;;;;;116.80;61.58;;;;;;;1.55;82.25;102140.27;1743321;82;21338;-54
2021/10/31 05:35:42;;;;;;;124.95;61.55;;;;;;;1.61;82.19;102135.02;1742696;82;21249;-53
2021/10/31 05:38:48;;;;;;;114.03;59.13;;;;;;;1.66;82.16;102136.56;1742571;82;21315;-53
2021/10/31 05:41:55;;;;;;;108.37;59.58;;;;;;;1.72;82.15;102134.89;1743121;82;21866;-55
2021/10/31 05:45:03;;;;;;;112.92;60.98;;;;;;;1.81;82.23;102143.02;1742657;82;21895;-54
2021/10/31 05:48:09;;;;;;;102.87;54.48;;;;;;;1.88;82.23;102139.92;1743174;81;21327;-53
2021/10/31 05:51:16;;;;;;;102.85;54.13;;;;;;;1.97;82.20;102149.36;1773041;80;21343;-54
2021/10/31 05:54:23;;;;;;;115.95;55.23;;;;;;;2.06;82.23;102147.56;1773433;80;21257;-54
2021/10/31 05:57:29;;;;;;;101.10;52.50;;;;;;;2.15;82.34;102156.06;1771431;79;21217;-54
2021/10/31 06:00:35;;;;;;;95.32;50.03;;;;;;;2.26;82.39;102158.20;1771171;80;21220;-55
2021/10/31 06:03:42;;;;;;;97.88;50.80;;;;;;;2.35;82.40;102157.71;1771305;80;21249;-55
2021/10/31 06:06:50;;;;;;;97.05;53.45;;;;;;;2.46;82.44;102160.72;1771358;80;21291;-53
2021/10/31 06:09:58;;;;;;;99.32;51.13;;;;;;;2.54;82.49;102158.02;1768117;80;21308;-55
2021/10/31 06:13:03;;;;;;;91.75;50.48;;;;;;;2.65;82.45;102158.32;1761373;81;21287;-55
2021/10/31 06:16:09;;;;;;;95.90;51.75;;;;;;;2.75;82.44;102162.75;1761492;81;21211;-54
2021/10/31 06:19:15;;;;;;;87.78;49.98;;;;;;;2.85;82.50;102162.66;1762029;81;21314;-54
2021/10/31 06:22:20;;;;;;;95.83;50.85;;;;;;;2.96;82.56;102158.89;1762388;81;21346;-55
2021/10/31 06:25:26;;;;;;;92.78;50.70;;;;;;;3.09;82.59;102168.09;1762266;81;21191;-54
2021/10/31 06:28:33;;;;;;;89.45;48.42;;;;;;;3.20;82.62;102158.89;1761831;81;21177;-55
2021/10/31 06:31:39;;;;;;;94.92;50.63;;;;;;;3.33;82.62;102159.08;1761917;81;21350;-54
2021/10/31 06:34:45;;;;;;;97.22;49.95;;;;;;;3.45;82.65;102165.13;1761749;81;21220;-54
2021/10/31 06:37:52;;;;;;;97.75;49.10;;;;;;;3.56;82.58;102158.63;1761776;81;21943;-55
2021/10/31 06:40:57;;;;;;;101.07;49.67;;;;;;;3.70;82.60;102163.64;1761931;81;21358;-54
2021/10/31 06:44:03;;;;;;;84.52;45.23;;;;;;;3.84;82.70;102159.64;1761731;81;21389;-55
2021/10/31 06:47:09;;;;;;;78.07;45.15;;;;;;;3.97;82.73;102153.91;1761750;81;21350;-54
2021/10/31 06:50:16;;;;;;;75.87;42.58;;;;;;;4.11;82.71;102149.89;1762226;81;21389;-54
2021/10/31 06:53:22;;;;;;;74.27;44.18;;;;;;;4.24;82.72;102154.97;1762282;81;21168;-55
2021/10/31 06:56:28;;;;;;;69.35;40.45;;;;;;;4.36;82.72;102150.15;1762211;81;21192;-55
2021/10/31 06:59:33;;;;;;;64.42;40.12;;;;;;;4.49;82.65;102152.51;1762935;80;21216;-53
2021/10/31 07:02:40;;;;;;;65.45;42.03;;;;;;;4.61;82.66;102157.16;1767258;81;21189;-53
2021/10/31 07:05:47;;;;;;;59.85;38.88;;;;;;;4.75;82.71;102150.02;1741701;82;21799;-54
2021/10/31 07:08:55;;;;;;;63.17;39.10;;;;;;;4.89;82.85;102151.38;1740480;82;21181;-54
2021/10/31 07:12:02;;;;;;;62.25;37.78;;;;;;;5.05;82.92;102150.80;1741817;82;21331;-53
2021/10/31 07:15:09;;;;;;;58.02;36.70;;;;;;;5.18;82.97;102142.27;1742322;82;21362;-54
2021/10/31 07:18:17;;;;;;;50.70;33.00;;;;;;;5.34;83.08;102133.52;1742525;81;21851;-54
2021/10/31 07:21:25;;;;;;;60.25;36.88;;;;;;;5.49;83.15;102139.29;1742971;82;21825;-54
2021/10/31 07:24:32;;;;;;;68.83;37.67;;;;;;;5.69;83.28;102129.36;1742891;82;21366;-53
2021/10/31 07:27:37;;;;;;;62.75;36.80;;;;;;;5.83;83.24;102132.94;1741962;82;21759;-53
2021/10/31 07:30:46;;;;;;;58.08;35.15;;;;;;;6.02;83.25;102134.77;1742706;82;21402;-53
2021/10/31 07:33:54;;;;;;;52.20;32.33;;;;;;;6.18;83.05;102130.54;1761541;81;21290;-53
2021/10/31 07:37:01;;;;;;;49.55;30.45;;;;;;;6.34;82.77;102132.59;1772997;80;21193;-54
2021/10/31 07:40:07;;;;;;;40.65;29.10;;;;;;;6.45;82.60;102124.55;1772987;80;21248;-54
2021/10/31 07:43:15;;;;;;;43.40;27.80;;;;;;;6.61;82.45;102128.42;1773645;80;21804;-54
2021/10/31 07:46:21;;;;;;;38.33;26.00;;;;;;;6.76;82.22;102129.56;1771464;80;21225;-54
2021/10/31 07:49:28;;;;;;;44.27;28.98;;;;;;;6.92;81.74;102133.42;1775585;80;21250;-54
2021/10/31 07:52:32;;;;;;;37.25;25.57;;;;;;;7.02;81.22;102124.98;1773905;81;21318;-54
2021/10/31 07:55:41;;;;;;;40.35;27.75;;;;;;;7.12;80.80;102128.28;1774491;81;21728;-54
2021/10/31 07:58:54;;;;;;;37.42;26.12;;;;;;;7.26;80.45;102128.14;1777503;80;21215;-54
2021/10/31 08:01:58;;;;;;;42.48;24.52;;;;;;;7.37;80.08;102130.95;1731193;82;21386;-54
2021/10/31 08:05:04;;;;;;;40.05;24.37;;;;;;;7.51;79.91;102129.46;1736572;81;21208;-54
2021/10/31 08:08:09;;;;;;;40.60;25.05;;;;;;;7.67;79.64;102120.12;1727654;82;21217;-55
2021/10/31 08:11:15;;;;;;;37.53;23.83;;;;;;;7.78;79.27;102114.73;1729182;82;21254;-52
2021/10/31 08:14:22;;;;;;;37.15;22.82;;;;;;;7.91;78.91;102112.83;1729849;83;21714;-55
2021/10/31 08:17:27;;;;;;;34.00;21.80;;;;;;;8.02;78.47;102119.70;1729893;83;21872;-55
2021/10/31 08:20:33;;;;;;;29.42;21.00;;;;;;;8.12;77.93;102109.83;1729936;82;21395;-55
2021/10/31 08:23:39;;;;;;;34.92;22.22;;;;;;;8.22;77.49;102110.36;1729504;83;21335;-52
2021/10/31 08:26:48;;;;;;;28.83;19.98;;;;;;;8.35;77.11;102106.22;1715111;83;21801;-53
2021/10/31 08:29:53;;;;;;;28.00;20.17;;;;;;;8.49;76.60;102101.91;1730034;82;21601;-53
2021/10/31 08:33:06;;;;;;;29.50;18.60;;;;;;;8.60;76.06;102109.62;1730050;83;21840;-54
2021/10/31 08:36:07;;;;;;;26.17;18.57;;;;;;;8.71;75.59;102097.84;1729401;83;21370;-54
2021/10/31 08:39:14;;;;;;;29.45;17.27;;;;;;;8.81;75.12;102094.77;1729708;82;21740;-54
2021/10/31 08:42:21;;;;;;;21.77;14.90;;;;;;;8.95;74.75;102098.62;1729938;83;21891;-55
2021/10/31 08:45:27;;;;;;;19.90;13.90;;;;;;;9.13;73.90;102100.36;1729809;82;22196;-53
2021/10/31 08:48:34;;;;;;;19.12;13.03;;;;;;;9.29;72.88;102083.97;1729919;83;21370;-54
2021/10/31 08:51:40;;;;;;;26.00;12.73;;;;;;;9.44;72.21;102080.44;1726497;82;21385;-54
2021/10/31 08:54:46;;;;;;;23.52;13.60;;;;;;;9.53;71.34;102077.80;1710007;82;21518;-54
2021/10/31 08:57:52;;;;;;;21.52;13.45;;;;;;;9.65;70.60;102070.45;1726888;82;21176;-54
2021/10/31 09:00:56;;;;;;;21.93;14.23;;;;;;;9.77;69.97;102068.03;1744634;79;22164;-55
2021/10/31 09:04:03;;;;;;;20.95;13.03;;;;;;;9.86;69.32;102061.81;1768962;81;21189;-54
2021/10/31 09:07:14;;;;;;;20.10;13.72;;;;;;;9.91;69.14;102060.41;1760632;81;21239;-55
2021/10/31 09:10:20;;;;;;;22.95;14.43;;;;;;;9.96;68.88;102051.31;1768470;81;21753;-54
2021/10/31 09:13:27;;;;;;;20.02;13.13;;;;;;;10.06;68.78;102052.76;1769061;80;21209;-54
2021/10/31 09:16:33;;;;;;;17.80;12.70;;;;;;;10.19;68.71;102052.11;1768802;81;21248;-55
2021/10/31 09:19:39;;;;;;;19.95;13.18;;;;;;;10.33;67.66;102038.96;1768985;81;21367;-54
2021/10/31 09:22:45;;;;;;;17.10;11.15;;;;;;;10.39;67.12;102039.79;1768468;81;21313;-55
2021/10/31 09:25:50;;;;;;;15.38;10.85;;;;;;;10.46;66.92;102030.02;1761810;80;21674;-54
2021/10/31 09:28:56;;;;;;;16.42;10.85;;;;;;;10.54;66.65;102026.10;1739361;82;21285;-54
2021/10/31 09:32:02;;;;;;;14.05;8.98;;;;;;;10.65;66.37;102024.30;1739721;82;21675;-54
2021/10/31 09:35:08;;;;;;;20.30;9.80;;;;;;;10.76;65.77;102024.20;1739436;81;21753;-54
2021/10/31 09:38:16;;;;;;;19.70;11.48;;;;;;;10.86;64.55;102023.75;1739932;82;21185;-54
2021/10/31 09:41:25;;;;;;;17.60;11.43;;;;;;;10.91;64.31;102022.32;1739969;81;21224;-55
2021/10/31 09:44:34;;;;;;;20.62;12.15;;;;;;;10.96;63.99;102010.45;1742069;81;21904;-54
2021/10/31 09:47:38;;;;;;;18.92;11.93;;;;;;;11.04;63.74;102008.38;1738668;82;21240;-54
2021/10/31 09:50:48;;;;;;;18.50;13.65;;;;;;;11.12;63.48;102006.69;1739124;81;21251;-54
2021/10/31 09:53:54;;;;;;;19.20;11.97;;;;;;;11.22;63.44;102003.47;1739305;82;21725;-55
2021/10/31 09:57:00;;;;;;;19.40;11.78;;;;;;;11.27;63.12;101977.88;1731627;82;21244;-54
2021/10/31 10:00:05;;;;;;;18.70;11.45;;;;;;;11.34;63.12;101985.87;1740047;82;21216;-54
2021/10/31 10:03:40;;;;;;;20.08;10.95;;;;;;;11.42;63.05;101968.71;1740346;81;21736;-53
2021/10/31 10:06:34;;;;;;;18.23;8.68;;;;;;;11.49;62.52;101972.63;1733906;82;21232;-53
2021/10/31 10:09:39;;;;;;;12.10;7.50;;;;;;;11.59;62.05;101968.87;1739154;82;21244;-54
2021/10/31 10:12:46;;;;;;;13.95;7.45;;;;;;;11.74;61.82;101958.38;1752111;81;21219;-54
2021/10/31 10:15:55;;;;;;;12.25;6.20;;;;;;;11.90;61.59;101954.53;1764965;81;21197;-54
2021/10/31 10:19:01;;;;;;;8.00;5.85;;;;;;;12.03;60.98;101950.45;1770171;80;21197;-54
2021/10/31 10:22:14;;;;;;;18.12;7.10;;;;;;;12.13;60.46;101946.32;1757613;80;21205;-55
2021/10/31 10:25:19;;;;;;;8.95;6.08;;;;;;;12.25;60.00;101936.91;1732101;82;21251;-54
2021/10/31 10:28:31;;;;;;;9.45;6.10;;;;;;;12.37;59.48;101936.24;1769723;80;21785;-54
2021/10/31 10:31:36;;;;;;;8.80;6.17;;;;;;;12.44;58.70;101932.73;1769830;80;21213;-53
2021/10/31 10:34:50;;;;;;;10.08;6.20;;;;;;;12.49;58.53;101918.55;1767897;80;21699;-54
2021/10/31 10:37:57;;;;;;;8.63;5.75;;;;;;;12.58;58.31;101914.38;1756842;81;21773;-53
2021/10/31 10:41:02;;;;;;;6.78;5.03;;;;;;;12.70;58.27;101910.41;1764713;81;21785;-54
2021/10/31 10:44:10;;;;;;;9.43;5.10;;;;;;;12.82;57.59;101899.59;1769638;80;21726;-53
2021/10/31 10:47:22;;;;;;;7.70;4.58;;;;;;;12.90;57.10;101905.19;1769905;80;21189;-55
2021/10/31 10:50:38;;;;;;;6.67;4.17;;;;;;;12.98;56.69;101893.41;1770212;80;21781;-56
2021/10/31 10:53:44;;;;;;;7.35;3.80;;;;;;;13.05;55.87;101895.41;1764826;81;21509;-53
2021/10/31 10:57:14;;;;;;;6.33;4.05;;;;;;;13.10;54.87;101889.44;1751404;81;21731;-53
2021/10/31 11:00:27;;;;;;;10.28;3.90;;;;;;;13.14;53.44;101881.25;1734863;82;21596;-54
2021/10/31 11:03:39;;;;;;;7.77;3.97;;;;;;;13.17;53.40;101881.81;1735876;81;21333;-53
2021/10/31 11:06:47;;;;;;;11.30;3.83;;;;;;;13.25;52.85;101889.27;1770702;80;21213;-53
2021/10/31 11:09:55;;;;;;;7.95;3.65;;;;;;;13.30;52.92;101880.89;1735717;82;21358;-54
2021/10/31 11:13:04;;;;;;;5.62;3.60;;;;;;;13.34;52.71;101875.44;1735607;82;21278;-53
2021/10/31 11:16:10;;;;;;;8.13;4.72;;;;;;;13.42;52.33;101872.77;1742187;81;21208;-53
2021/10/31 11:19:19;;;;;;;7.45;4.12;;;;;;;13.53;52.05;101875.28;1754936;81;21207;-54
2021/10/31 11:22:28;;;;;;;5.92;4.15;;;;;;;13.67;51.53;101869.70;1745578;81;21844;-53
2021/10/31 11:25:35;;;;;;;7.62;4.42;;;;;;;13.80;51.47;101866.53;1761345;81;21223;-55
2021/10/31 11:28:41;;;;;;;11.45;4.92;;;;;;;13.93;51.13;101858.72;1760873;80;21771;-55
2021/10/31 11:31:51;;;;;;;7.55;4.35;;;;;;;14.05;50.35;101850.56;1760742;81;21808;-55
2021/10/31 11:35:01;;;;;;;11.38;4.90;;;;;;;14.14;50.04;101845.44;1761183;81;21254;-54
2021/10/31 11:38:12;;;;;;;9.35;4.70;;;;;;;14.19;49.55;101841.69;1761210;81;21350;-53
2021/10/31 11:41:18;;;;;;;9.15;4.70;;;;;;;14.29;49.54;101847.95;1760840;81;21270;-53
2021/10/31 11:44:23;;;;;;;8.50;4.87;;;;;;;14.41;49.40;101835.09;1761117;81;21739;-57
2021/10/31 11:47:32;;;;;;;13.32;5.75;;;;;;;14.49;49.12;101832.92;1761317;81;21176;-55
2021/10/31 11:50:39;;;;;;;9.93;6.47;;;;;;;14.55;48.51;101830.88;1762272;81;21393;-53
2021/10/31 11:53:51;;;;;;;10.53;6.10;;;;;;;14.60;48.50;101831.23;1762123;81;21232;-54
2021/10/31 11:56:57;;;;;;;12.88;6.75;;;;;;;14.68;48.22;101826.59;1763987;81;21340;-52
2021/10/31 12:00:24;;;;;;;10.03;6.03;;;;;;;14.71;47.75;101817.98;1762828;80;21250;-53
2021/10/31 12:03:51;;;;;;;14.45;6.25;;;;;;;14.77;47.63;101823.36;1761024;81;21227;-54
2021/10/31 12:06:57;;;;;;;11.20;6.80;;;;;;;14.84;46.96;101813.41;1737884;81;21375;-54
2021/10/31 12:10:04;;;;;;;13.03;7.00;;;;;;;14.91;47.44;101815.30;1761261;81;21753;-54
2021/10/31 12:13:30;;;;;;;10.38;6.30;;;;;;;15.03;47.48;101807.58;1762258;81;21574;-54
2021/10/31 12:16:36;;;;;;;10.58;6.75;;;;;;;15.11;47.60;101810.86;1753516;81;21350;-55
2021/10/31 12:19:49;;;;;;;11.43;6.90;;;;;;;15.16;47.12;101797.42;1738916;81;21354;-53
2021/10/31 12:22:54;;;;;;;13.05;7.28;;;;;;;15.22;46.86;101803.13;1735993;81;21978;-53
2021/10/31 12:26:02;;;;;;;11.95;6.47;;;;;;;15.27;46.65;101797.08;1708010;82;21204;-54
2021/10/31 12:29:28;;;;;;;11.10;6.30;;;;;;;15.25;46.42;101798.64;1732985;82;21319;-54
2021/10/31 12:32:36;;;;;;;10.88;5.90;;;;;;;15.29;46.14;101799.13;1733047;82;21327;-55
2021/10/31 12:35:54;;;;;;;10.13;6.12;;;;;;;15.30;45.24;101804.48;1697220;82;21418;-54
2021/10/31 12:38:59;;;;;;;14.30;8.28;;;;;;;15.29;44.70;101800.51;1732421;82;21336;-54
2021/10/31 12:42:29;;;;;;;14.53;8.13;;;;;;;15.32;44.47;101799.66;1732195;82;21322;-54
2021/10/31 12:45:37;;;;;;;12.65;6.75;;;;;;;15.37;44.04;101797.25;1732315;82;21192;-54
2021/10/31 12:48:44;;;;;;;10.85;5.75;;;;;;;15.36;44.09;101789.14;1732691;82;21315;-54
2021/10/31 12:52:04;;;;;;;12.05;5.70;;;;;;;15.38;43.92;101789.34;1732348;82;21224;-54
2021/10/31 12:55:10;;;;;;;9.33;5.90;;;;;;;15.31;43.58;101784.66;1733661;82;21371;-54
2021/10/31 12:58:20;;;;;;;13.08;7.12;;;;;;;15.29;43.85;101782.58;1733719;82;21173;-54
2021/10/31 13:01:26;;;;;;;12.30;7.30;;;;;;;15.26;43.84;101777.41;1732691;82;21252;-54
2021/10/31 13:04:34;;;;;;;11.45;5.95;;;;;;;15.20;44.17;101773.45;1733635;82;21327;-54
2021/10/31 13:07:54;;;;;;;12.93;6.67;;;;;;;15.19;44.12;101773.09;1761668;81;21327;-54
2021/10/31 13:11:01;;;;;;;12.70;6.15;;;;;;;15.16;44.15;101773.98;1761862;81;21760;-53
2021/10/31 13:14:07;;;;;;;11.00;6.12;;;;;;;15.12;44.29;101769.81;1751060;82;21789;-54
2021/10/31 13:17:14;;;;;;;12.07;6.05;;;;;;;15.09;44.25;101772.41;1762222;81;21311;-54
2021/10/31 13:20:46;;;;;;;11.08;6.28;;;;;;;15.02;44.49;101775.50;1764017;81;21227;-54
2021/10/31 13:23:48;;;;;;;14.83;6.30;;;;;;;14.98;44.81;101769.99;1772857;80;21363;-54
2021/10/31 13:26:55;;;;;;;10.85;6.08;;;;;;;14.95;45.05;101765.66;1773184;80;21329;-54
2021/10/31 13:30:01;;;;;;;14.40;6.03;;;;;;;14.91;45.16;101760.66;1769032;81;21678;-54
2021/10/31 13:33:07;;;;;;;13.78;5.87;;;;;;;14.86;45.04;101760.30;1772268;80;21197;-54
2021/10/31 13:36:29;;;;;;;12.37;6.35;;;;;;;14.78;45.11;101756.15;1772448;80;21213;-54
2021/10/31 13:39:35;;;;;;;12.65;7.10;;;;;;;14.67;45.32;101749.58;1772201;80;21977;-54
2021/10/31 13:42:49;;;;;;;17.15;8.83;;;;;;;14.55;45.67;101746.81;1772128;80;21201;-55
2021/10/31 13:46:04;;;;;;;18.12;11.28;;;;;;;14.45;45.91;101740.06;1770916;80;21367;-54
2021/10/31 13:49:18;;;;;;;18.07;9.80;;;;;;;14.31;46.20;101732.95;1771444;80;21170;-55
2021/10/31 13:52:22;;;;;;;13.83;9.05;;;;;;;14.15;46.23;101732.35;1771872;80;21734;-54
2021/10/31 13:55:29;;;;;;;16.00;9.03;;;;;;;13.99;46.44;101729.52;1772312;80;21327;-54
2021/10/31 13:58:35;;;;;;;17.65;9.20;;;;;;;13.86;46.62;101730.48;1771841;80;21347;-54
2021/10/31 14:01:48;;;;;;;19.32;10.75;;;;;;;13.74;46.89;101736.44;1771614;80;21363;-54
2021/10/31 14:05:18;;;;;;;20.85;10.93;;;;;;;13.56;47.26;101723.28;1771844;80;21333;-54
2021/10/31 14:08:30;;;;;;;18.42;9.83;;;;;;;13.37;47.76;101718.83;1764199;80;21335;-54
2021/10/31 14:11:33;;;;;;;19.52;10.75;;;;;;;13.13;48.20;101719.52;1770890;80;21248;-55
2021/10/31 14:14:51;;;;;;;18.77;11.15;;;;;;;12.92;48.59;101712.08;1770137;80;21212;-54
2021/10/31 14:18:12;;;;;;;20.20;11.90;;;;;;;12.72;49.11;101720.66;1761254;81;21188;-55
2021/10/31 14:21:19;;;;;;;20.95;11.50;;;;;;;12.48;49.51;101715.78;1760735;81;21200;-54
2021/10/31 14:24:24;;;;;;;25.25;10.93;;;;;;;12.22;50.12;101712.08;1750279;81;21200;-54